sensor_id;sensor_type;location;lat;lon;timestamp;P1;durP1;ratioP1;P2;durP2;ratioP2
17953;SDS011;9102;53.548;9.926;2022-09-09T00:00:12;70.20;;;34.00;;
17953;SDS011;9102;53.548;9.926;2022-09-09T00:02:40;68.13;;;32.30;;
17953;SDS011;9102;53.548;9.926;2022-09-09T00:05:14;74.13;;;34.85;;
17953;SDS011;9102;53.548;9.926;2022-09-09T00:07:51;76.47;;;34.20;;
17953;SDS011;9102;53.548;9.926;2022-09-09T00:10:21;73.45;;;33.92;;
17953;SDS011;9102;53.548;9.926;2022-09-09T00:12:57;71.60;;;31.95;;
17953;SDS011;9102;53.548;9.926;2022-09-09T00:15:33;70.95;;;33.55;;
17953;SDS011;9102;53.548;9.926;2022-09-09T00:18:09;65.70;;;32.80;;
17953;SDS011;9102;53.548;9.926;2022-09-09T00:20:43;62.53;;;30.40;;
17953;SDS011;9102;53.548;9.926;2022-09-09T00:23:17;70.75;;;33.00;;
17953;SDS011;9102;53.548;9.926;2022-09-09T00:25:52;72.70;;;31.90;;
17953;SDS011;9102;53.548;9.926;2022-09-09T00:28:27;69.85;;;32.03;;
17953;SDS011;9102;53.548;9.926;2022-09-09T00:30:58;68.50;;;32.40;;
17953;SDS011;9102;53.548;9.926;2022-09-09T00:33:34;73.35;;;33.00;;
17953;SDS011;9102;53.548;9.926;2022-09-09T00:36:01;77.50;;;34.60;;
17953;SDS011;9102;53.548;9.926;2022-09-09T00:38:34;76.13;;;35.33;;
17953;SDS011;9102;53.548;9.926;2022-09-09T00:41:05;76.55;;;36.17;;
17953;SDS011;9102;53.548;9.926;2022-09-09T00:43:40;91.25;;;38.83;;
17953;SDS011;9102;53.548;9.926;2022-09-09T00:46:14;83.20;;;36.03;;
17953;SDS011;9102;53.548;9.926;2022-09-09T00:49:04;100.22;;;40.63;;
17953;SDS011;9102;53.548;9.926;2022-09-09T00:51:41;97.65;;;40.33;;
17953;SDS011;9102;53.548;9.926;2022-09-09T00:54:21;108.95;;;41.22;;
17953;SDS011;9102;53.548;9.926;2022-09-09T00:56:57;99.10;;;40.40;;
17953;SDS011;9102;53.548;9.926;2022-09-09T00:59:34;91.50;;;40.33;;
17953;SDS011;9102;53.548;9.926;2022-09-09T01:02:13;100.30;;;42.67;;
17953;SDS011;9102;53.548;9.926;2022-09-09T01:04:47;120.32;;;44.03;;
17953;SDS011;9102;53.548;9.926;2022-09-09T01:07:15;114.85;;;44.38;;
17953;SDS011;9102;53.548;9.926;2022-09-09T01:09:54;100.72;;;40.05;;
17953;SDS011;9102;53.548;9.926;2022-09-09T01:12:24;102.18;;;40.30;;
17953;SDS011;9102;53.548;9.926;2022-09-09T01:14:58;88.38;;;37.08;;
17953;SDS011;9102;53.548;9.926;2022-09-09T01:17:34;107.70;;;40.05;;
17953;SDS011;9102;53.548;9.926;2022-09-09T01:20:13;92.13;;;37.55;;
17953;SDS011;9102;53.548;9.926;2022-09-09T01:22:44;86.97;;;36.83;;
17953;SDS011;9102;53.548;9.926;2022-09-09T01:25:27;79.80;;;34.03;;
17953;SDS011;9102;53.548;9.926;2022-09-09T01:27:59;80.18;;;34.72;;
17953;SDS011;9102;53.548;9.926;2022-09-09T01:30:29;85.03;;;34.20;;
17953;SDS011;9102;53.548;9.926;2022-09-09T01:32:57;93.70;;;38.53;;
17953;SDS011;9102;53.548;9.926;2022-09-09T01:35:29;94.80;;;36.83;;
17953;SDS011;9102;53.548;9.926;2022-09-09T01:38:06;104.35;;;39.60;;
17953;SDS011;9102;53.548;9.926;2022-09-09T01:40:33;109.13;;;40.45;;
17953;SDS011;9102;53.548;9.926;2022-09-09T01:43:02;91.95;;;38.25;;
17953;SDS011;9102;53.548;9.926;2022-09-09T01:45:29;127.00;;;40.25;;
17953;SDS011;9102;53.548;9.926;2022-09-09T01:47:57;115.30;;;40.40;;
17953;SDS011;9102;53.548;9.926;2022-09-09T01:50:24;100.68;;;37.72;;
17953;SDS011;9102;53.548;9.926;2022-09-09T01:52:52;98.88;;;38.83;;
17953;SDS011;9102;53.548;9.926;2022-09-09T01:55:23;105.68;;;38.38;;
17953;SDS011;9102;53.548;9.926;2022-09-09T01:57:57;111.30;;;41.63;;
17953;SDS011;9102;53.548;9.926;2022-09-09T02:00:42;107.88;;;39.05;;
17953;SDS011;9102;53.548;9.926;2022-09-09T02:03:17;116.32;;;41.85;;
17953;SDS011;9102;53.548;9.926;2022-09-09T02:09:11;106.95;;;38.60;;
17953;SDS011;9102;53.548;9.926;2022-09-09T02:11:40;96.85;;;36.75;;
17953;SDS011;9102;53.548;9.926;2022-09-09T02:14:14;89.28;;;36.22;;
17953;SDS011;9102;53.548;9.926;2022-09-09T02:16:47;108.25;;;38.30;;
17953;SDS011;9102;53.548;9.926;2022-09-09T02:19:17;88.35;;;36.08;;
17953;SDS011;9102;53.548;9.926;2022-09-09T02:21:50;102.22;;;37.80;;
17953;SDS011;9102;53.548;9.926;2022-09-09T02:24:19;89.47;;;36.35;;
17953;SDS011;9102;53.548;9.926;2022-09-09T02:26:49;87.82;;;35.67;;
17953;SDS011;9102;53.548;9.926;2022-09-09T02:29:21;101.22;;;38.63;;
17953;SDS011;9102;53.548;9.926;2022-09-09T02:31:52;102.22;;;37.25;;
17953;SDS011;9102;53.548;9.926;2022-09-09T02:34:21;87.55;;;36.03;;
17953;SDS011;9102;53.548;9.926;2022-09-09T02:36:50;88.45;;;35.22;;
17953;SDS011;9102;53.548;9.926;2022-09-09T02:39:21;80.50;;;33.70;;
17953;SDS011;9102;53.548;9.926;2022-09-09T02:41:47;82.20;;;34.15;;
17953;SDS011;9102;53.548;9.926;2022-09-09T02:44:15;89.07;;;35.30;;
17953;SDS011;9102;53.548;9.926;2022-09-09T02:47:05;83.13;;;33.67;;
17953;SDS011;9102;53.548;9.926;2022-09-09T02:49:41;78.15;;;33.22;;
17953;SDS011;9102;53.548;9.926;2022-09-09T02:52:15;79.68;;;32.42;;
17953;SDS011;9102;53.548;9.926;2022-09-09T02:54:47;72.82;;;32.67;;
17953;SDS011;9102;53.548;9.926;2022-09-09T02:57:21;70.63;;;31.52;;
17953;SDS011;9102;53.548;9.926;2022-09-09T02:59:50;72.78;;;32.47;;
17953;SDS011;9102;53.548;9.926;2022-09-09T03:02:19;66.95;;;30.15;;
17953;SDS011;9102;53.548;9.926;2022-09-09T03:04:46;65.28;;;31.02;;
17953;SDS011;9102;53.548;9.926;2022-09-09T03:07:15;63.25;;;29.45;;
17953;SDS011;9102;53.548;9.926;2022-09-09T03:09:42;66.80;;;30.77;;
17953;SDS011;9102;53.548;9.926;2022-09-09T03:12:09;59.55;;;28.45;;
17953;SDS011;9102;53.548;9.926;2022-09-09T03:14:36;62.25;;;29.35;;
17953;SDS011;9102;53.548;9.926;2022-09-09T03:17:03;64.05;;;29.75;;
17953;SDS011;9102;53.548;9.926;2022-09-09T03:19:32;59.72;;;29.10;;
17953;SDS011;9102;53.548;9.926;2022-09-09T03:22:00;56.00;;;27.85;;
17953;SDS011;9102;53.548;9.926;2022-09-09T03:24:27;58.03;;;27.40;;
17953;SDS011;9102;53.548;9.926;2022-09-09T03:26:53;53.92;;;27.10;;
17953;SDS011;9102;53.548;9.926;2022-09-09T03:29:20;51.65;;;27.40;;
17953;SDS011;9102;53.548;9.926;2022-09-09T03:31:47;52.53;;;27.08;;
17953;SDS011;9102;53.548;9.926;2022-09-09T03:34:15;50.88;;;25.95;;
17953;SDS011;9102;53.548;9.926;2022-09-09T03:36:43;51.03;;;26.15;;
17953;SDS011;9102;53.548;9.926;2022-09-09T03:39:10;49.90;;;25.25;;
17953;SDS011;9102;53.548;9.926;2022-09-09T03:41:37;47.22;;;24.42;;
17953;SDS011;9102;53.548;9.926;2022-09-09T03:44:04;51.72;;;27.58;;
17953;SDS011;9102;53.548;9.926;2022-09-09T03:46:30;46.50;;;25.15;;
17953;SDS011;9102;53.548;9.926;2022-09-09T03:48:57;47.35;;;24.75;;
17953;SDS011;9102;53.548;9.926;2022-09-09T03:51:24;46.97;;;25.20;;
17953;SDS011;9102;53.548;9.926;2022-09-09T03:53:52;48.33;;;26.35;;
17953;SDS011;9102;53.548;9.926;2022-09-09T03:56:20;49.08;;;26.33;;
17953;SDS011;9102;53.548;9.926;2022-09-09T03:58:47;47.00;;;25.20;;
17953;SDS011;9102;53.548;9.926;2022-09-09T04:01:14;45.85;;;24.65;;
17953;SDS011;9102;53.548;9.926;2022-09-09T04:07:04;49.97;;;25.90;;
17953;SDS011;9102;53.548;9.926;2022-09-09T04:09:33;47.67;;;25.88;;
17953;SDS011;9102;53.548;9.926;2022-09-09T04:12:00;52.25;;;27.17;;
17953;SDS011;9102;53.548;9.926;2022-09-09T04:14:27;51.85;;;26.83;;
17953;SDS011;9102;53.548;9.926;2022-09-09T04:16:54;49.92;;;25.60;;
17953;SDS011;9102;53.548;9.926;2022-09-09T04:19:23;50.50;;;26.55;;
17953;SDS011;9102;53.548;9.926;2022-09-09T04:21:50;51.28;;;27.02;;
17953;SDS011;9102;53.548;9.926;2022-09-09T04:24:16;48.55;;;25.85;;
17953;SDS011;9102;53.548;9.926;2022-09-09T04:26:45;50.05;;;26.13;;
17953;SDS011;9102;53.548;9.926;2022-09-09T04:29:12;46.80;;;25.65;;
17953;SDS011;9102;53.548;9.926;2022-09-09T04:31:38;43.30;;;26.15;;
17953;SDS011;9102;53.548;9.926;2022-09-09T04:34:07;51.00;;;26.08;;
17953;SDS011;9102;53.548;9.926;2022-09-09T04:36:34;54.05;;;27.45;;
17953;SDS011;9102;53.548;9.926;2022-09-09T04:39:01;49.38;;;26.88;;
17953;SDS011;9102;53.548;9.926;2022-09-09T04:41:28;49.83;;;27.30;;
17953;SDS011;9102;53.548;9.926;2022-09-09T04:43:57;52.40;;;27.02;;
17953;SDS011;9102;53.548;9.926;2022-09-09T04:46:25;48.13;;;24.77;;
17953;SDS011;9102;53.548;9.926;2022-09-09T04:48:53;49.30;;;27.52;;
17953;SDS011;9102;53.548;9.926;2022-09-09T04:51:19;45.28;;;24.35;;
17953;SDS011;9102;53.548;9.926;2022-09-09T04:53:46;45.03;;;25.02;;
17953;SDS011;9102;53.548;9.926;2022-09-09T04:56:15;42.10;;;23.45;;
17953;SDS011;9102;53.548;9.926;2022-09-09T04:58:43;38.70;;;21.65;;
17953;SDS011;9102;53.548;9.926;2022-09-09T05:01:12;37.40;;;21.65;;
17953;SDS011;9102;53.548;9.926;2022-09-09T05:03:42;34.58;;;20.48;;
17953;SDS011;9102;53.548;9.926;2022-09-09T05:06:10;33.30;;;19.80;;
17953;SDS011;9102;53.548;9.926;2022-09-09T05:08:38;32.45;;;20.27;;
17953;SDS011;9102;53.548;9.926;2022-09-09T05:11:12;33.15;;;18.85;;
17953;SDS011;9102;53.548;9.926;2022-09-09T05:13:40;30.77;;;18.33;;
17953;SDS011;9102;53.548;9.926;2022-09-09T05:16:07;33.50;;;18.35;;
17953;SDS011;9102;53.548;9.926;2022-09-09T05:18:37;32.97;;;18.35;;
17953;SDS011;9102;53.548;9.926;2022-09-09T05:21:04;28.13;;;17.63;;
17953;SDS011;9102;53.548;9.926;2022-09-09T05:23:31;29.83;;;17.58;;
17953;SDS011;9102;53.548;9.926;2022-09-09T05:25:59;26.63;;;17.65;;
17953;SDS011;9102;53.548;9.926;2022-09-09T05:28:26;27.95;;;17.88;;
17953;SDS011;9102;53.548;9.926;2022-09-09T05:30:57;27.92;;;17.30;;
17953;SDS011;9102;53.548;9.926;2022-09-09T05:33:25;32.55;;;18.80;;
17953;SDS011;9102;53.548;9.926;2022-09-09T05:35:58;29.17;;;18.00;;
17953;SDS011;9102;53.548;9.926;2022-09-09T05:38:26;29.33;;;18.48;;
17953;SDS011;9102;53.548;9.926;2022-09-09T05:40:53;26.40;;;17.38;;
17953;SDS011;9102;53.548;9.926;2022-09-09T05:43:22;30.10;;;17.65;;
17953;SDS011;9102;53.548;9.926;2022-09-09T05:45:58;25.80;;;16.00;;
17953;SDS011;9102;53.548;9.926;2022-09-09T05:48:27;28.13;;;17.27;;
17953;SDS011;9102;53.548;9.926;2022-09-09T05:50:55;27.48;;;16.15;;
17953;SDS011;9102;53.548;9.926;2022-09-09T05:53:23;24.20;;;16.20;;
17953;SDS011;9102;53.548;9.926;2022-09-09T05:55:50;27.63;;;14.85;;
17953;SDS011;9102;53.548;9.926;2022-09-09T05:58:24;25.27;;;15.18;;
17953;SDS011;9102;53.548;9.926;2022-09-09T06:00:51;20.27;;;12.98;;
17953;SDS011;9102;53.548;9.926;2022-09-09T06:03:17;20.38;;;12.50;;
17953;SDS011;9102;53.548;9.926;2022-09-09T06:05:48;32.08;;;17.05;;
17953;SDS011;9102;53.548;9.926;2022-09-09T06:08:24;18.98;;;13.30;;
17953;SDS011;9102;53.548;9.926;2022-09-09T06:10:51;20.83;;;12.27;;
17953;SDS011;9102;53.548;9.926;2022-09-09T06:13:18;19.25;;;12.35;;
17953;SDS011;9102;53.548;9.926;2022-09-09T06:15:49;17.42;;;12.02;;
17953;SDS011;9102;53.548;9.926;2022-09-09T06:18:16;17.67;;;11.30;;
17953;SDS011;9102;53.548;9.926;2022-09-09T06:20:43;15.02;;;9.73;;
17953;SDS011;9102;53.548;9.926;2022-09-09T06:23:19;16.05;;;9.75;;
17953;SDS011;9102;53.548;9.926;2022-09-09T06:25:47;16.50;;;8.98;;
17953;SDS011;9102;53.548;9.926;2022-09-09T06:28:14;15.63;;;9.82;;
17953;SDS011;9102;53.548;9.926;2022-09-09T06:30:41;12.65;;;9.15;;
17953;SDS011;9102;53.548;9.926;2022-09-09T06:33:07;14.43;;;8.75;;
17953;SDS011;9102;53.548;9.926;2022-09-09T06:35:35;17.30;;;9.15;;
17953;SDS011;9102;53.548;9.926;2022-09-09T06:38:02;14.82;;;9.63;;
17953;SDS011;9102;53.548;9.926;2022-09-09T06:40:28;15.52;;;8.50;;
17953;SDS011;9102;53.548;9.926;2022-09-09T06:43:00;14.13;;;7.57;;
17953;SDS011;9102;53.548;9.926;2022-09-09T06:45:27;14.30;;;8.32;;
17953;SDS011;9102;53.548;9.926;2022-09-09T06:47:54;11.07;;;7.55;;
17953;SDS011;9102;53.548;9.926;2022-09-09T06:50:21;11.38;;;7.38;;
17953;SDS011;9102;53.548;9.926;2022-09-09T06:52:48;18.50;;;7.88;;
17953;SDS011;9102;53.548;9.926;2022-09-09T06:55:15;11.43;;;7.15;;
17953;SDS011;9102;53.548;9.926;2022-09-09T06:57:43;12.05;;;6.38;;
17953;SDS011;9102;53.548;9.926;2022-09-09T07:00:12;12.32;;;6.75;;
17953;SDS011;9102;53.548;9.926;2022-09-09T07:02:39;10.38;;;6.20;;
17953;SDS011;9102;53.548;9.926;2022-09-09T07:05:07;9.30;;;6.97;;
17953;SDS011;9102;53.548;9.926;2022-09-09T07:07:34;9.43;;;5.78;;
17953;SDS011;9102;53.548;9.926;2022-09-09T07:10:01;10.18;;;5.88;;
17953;SDS011;9102;53.548;9.926;2022-09-09T07:12:29;9.88;;;5.43;;
17953;SDS011;9102;53.548;9.926;2022-09-09T07:14:56;14.85;;;5.30;;
17953;SDS011;9102;53.548;9.926;2022-09-09T07:17:24;8.93;;;4.63;;
17953;SDS011;9102;53.548;9.926;2022-09-09T07:19:51;8.05;;;4.55;;
17953;SDS011;9102;53.548;9.926;2022-09-09T07:22:17;7.97;;;4.90;;
17953;SDS011;9102;53.548;9.926;2022-09-09T07:24:45;6.88;;;4.38;;
17953;SDS011;9102;53.548;9.926;2022-09-09T07:27:11;6.25;;;3.50;;
17953;SDS011;9102;53.548;9.926;2022-09-09T07:29:38;7.00;;;3.55;;
17953;SDS011;9102;53.548;9.926;2022-09-09T07:32:05;10.85;;;3.90;;
17953;SDS011;9102;53.548;9.926;2022-09-09T07:34:33;6.65;;;4.22;;
17953;SDS011;9102;53.548;9.926;2022-09-09T07:37:00;7.63;;;3.85;;
17953;SDS011;9102;53.548;9.926;2022-09-09T07:39:27;7.38;;;3.92;;
17953;SDS011;9102;53.548;9.926;2022-09-09T07:41:53;6.45;;;4.25;;
17953;SDS011;9102;53.548;9.926;2022-09-09T07:44:21;7.32;;;3.88;;
17953;SDS011;9102;53.548;9.926;2022-09-09T07:46:49;8.57;;;4.53;;
17953;SDS011;9102;53.548;9.926;2022-09-09T07:49:16;7.15;;;3.72;;
17953;SDS011;9102;53.548;9.926;2022-09-09T07:51:45;7.40;;;4.80;;
17953;SDS011;9102;53.548;9.926;2022-09-09T07:54:14;6.85;;;4.60;;
17953;SDS011;9102;53.548;9.926;2022-09-09T07:56:45;6.97;;;4.75;;
17953;SDS011;9102;53.548;9.926;2022-09-09T07:59:12;6.00;;;4.10;;
17953;SDS011;9102;53.548;9.926;2022-09-09T08:01:40;8.70;;;4.20;;
17953;SDS011;9102;53.548;9.926;2022-09-09T08:04:09;13.20;;;4.75;;
17953;SDS011;9102;53.548;9.926;2022-09-09T08:06:41;9.43;;;4.38;;
17953;SDS011;9102;53.548;9.926;2022-09-09T08:09:11;7.68;;;3.38;;
17953;SDS011;9102;53.548;9.926;2022-09-09T08:11:38;6.70;;;3.58;;
17953;SDS011;9102;53.548;9.926;2022-09-09T08:14:06;8.73;;;3.95;;
17953;SDS011;9102;53.548;9.926;2022-09-09T08:16:34;6.65;;;3.38;;
17953;SDS011;9102;53.548;9.926;2022-09-09T08:19:03;7.85;;;3.40;;
17953;SDS011;9102;53.548;9.926;2022-09-09T08:21:32;5.97;;;3.10;;
17953;SDS011;9102;53.548;9.926;2022-09-09T08:24:02;8.40;;;3.10;;
17953;SDS011;9102;53.548;9.926;2022-09-09T08:26:31;5.15;;;3.20;;
17953;SDS011;9102;53.548;9.926;2022-09-09T08:29:00;6.75;;;2.83;;
17953;SDS011;9102;53.548;9.926;2022-09-09T08:31:28;7.03;;;2.50;;
17953;SDS011;9102;53.548;9.926;2022-09-09T08:33:57;5.38;;;2.50;;
17953;SDS011;9102;53.548;9.926;2022-09-09T08:36:26;4.07;;;2.80;;
17953;SDS011;9102;53.548;9.926;2022-09-09T08:38:55;3.72;;;2.10;;
17953;SDS011;9102;53.548;9.926;2022-09-09T08:41:29;3.72;;;2.22;;
17953;SDS011;9102;53.548;9.926;2022-09-09T08:44:23;5.35;;;2.35;;
17953;SDS011;9102;53.548;9.926;2022-09-09T08:47:02;5.72;;;2.28;;
17953;SDS011;9102;53.548;9.926;2022-09-09T08:52:36;3.92;;;1.90;;
17953;SDS011;9102;53.548;9.926;2022-09-09T08:55:12;4.65;;;1.92;;
17953;SDS011;9102;53.548;9.926;2022-09-09T08:57:47;3.47;;;1.75;;
17953;SDS011;9102;53.548;9.926;2022-09-09T09:00:18;3.03;;;2.15;;
17953;SDS011;9102;53.548;9.926;2022-09-09T09:02:46;3.35;;;1.80;;
17953;SDS011;9102;53.548;9.926;2022-09-09T09:05:22;8.23;;;2.42;;
17953;SDS011;9102;53.548;9.926;2022-09-09T09:07:59;4.72;;;2.05;;
17953;SDS011;9102;53.548;9.926;2022-09-09T09:10:40;4.70;;;2.38;;
17953;SDS011;9102;53.548;9.926;2022-09-09T09:13:13;8.13;;;3.00;;
17953;SDS011;9102;53.548;9.926;2022-09-09T09:15:44;4.05;;;2.05;;
17953;SDS011;9102;53.548;9.926;2022-09-09T09:18:15;8.05;;;2.22;;
17953;SDS011;9102;53.548;9.926;2022-09-09T09:20:46;6.38;;;1.98;;
17953;SDS011;9102;53.548;9.926;2022-09-09T09:23:24;10.48;;;2.22;;
17953;SDS011;9102;53.548;9.926;2022-09-09T09:25:56;8.57;;;2.10;;
17953;SDS011;9102;53.548;9.926;2022-09-09T09:28:27;5.80;;;1.50;;
17953;SDS011;9102;53.548;9.926;2022-09-09T09:30:58;10.40;;;6.25;;
17953;SDS011;9102;53.548;9.926;2022-09-09T09:33:31;3.72;;;1.70;;
17953;SDS011;9102;53.548;9.926;2022-09-09T09:36:02;3.15;;;1.33;;
17953;SDS011;9102;53.548;9.926;2022-09-09T09:38:33;5.00;;;1.35;;
17953;SDS011;9102;53.548;9.926;2022-09-09T09:41:00;3.28;;;1.40;;
17953;SDS011;9102;53.548;9.926;2022-09-09T09:43:28;4.38;;;1.48;;
17953;SDS011;9102;53.548;9.926;2022-09-09T09:45:57;5.25;;;1.35;;
17953;SDS011;9102;53.548;9.926;2022-09-09T09:48:25;3.15;;;1.20;;
17953;SDS011;9102;53.548;9.926;2022-09-09T09:50:53;3.88;;;1.20;;
17953;SDS011;9102;53.548;9.926;2022-09-09T09:53:24;4.65;;;1.73;;
17953;SDS011;9102;53.548;9.926;2022-09-09T09:55:56;4.00;;;1.40;;
17953;SDS011;9102;53.548;9.926;2022-09-09T09:58:25;4.13;;;1.38;;
17953;SDS011;9102;53.548;9.926;2022-09-09T10:00:54;5.88;;;1.30;;
17953;SDS011;9102;53.548;9.926;2022-09-09T10:03:24;2.30;;;1.23;;
17953;SDS011;9102;53.548;9.926;2022-09-09T10:05:53;5.35;;;2.97;;
17953;SDS011;9102;53.548;9.926;2022-09-09T10:08:21;3.25;;;1.35;;
17953;SDS011;9102;53.548;9.926;2022-09-09T10:11:12;3.50;;;1.35;;
17953;SDS011;9102;53.548;9.926;2022-09-09T10:13:52;2.40;;;1.10;;
17953;SDS011;9102;53.548;9.926;2022-09-09T10:16:31;2.63;;;1.10;;
17953;SDS011;9102;53.548;9.926;2022-09-09T10:19:09;4.68;;;1.63;;
17953;SDS011;9102;53.548;9.926;2022-09-09T10:21:45;3.40;;;1.50;;
17953;SDS011;9102;53.548;9.926;2022-09-09T10:24:28;6.63;;;1.65;;
17953;SDS011;9102;53.548;9.926;2022-09-09T10:27:16;5.32;;;1.52;;
17953;SDS011;9102;53.548;9.926;2022-09-09T10:29:57;4.38;;;1.23;;
17953;SDS011;9102;53.548;9.926;2022-09-09T10:32:36;4.63;;;1.48;;
17953;SDS011;9102;53.548;9.926;2022-09-09T10:35:11;5.10;;;1.60;;
17953;SDS011;9102;53.548;9.926;2022-09-09T10:37:48;5.50;;;1.50;;
17953;SDS011;9102;53.548;9.926;2022-09-09T10:40:43;6.18;;;1.58;;
17953;SDS011;9102;53.548;9.926;2022-09-09T10:43:22;3.53;;;1.00;;
17953;SDS011;9102;53.548;9.926;2022-09-09T10:46:01;4.38;;;1.35;;
17953;SDS011;9102;53.548;9.926;2022-09-09T10:48:36;5.75;;;1.30;;
17953;SDS011;9102;53.548;9.926;2022-09-09T10:51:27;3.78;;;1.23;;
17953;SDS011;9102;53.548;9.926;2022-09-09T10:54:08;5.55;;;1.55;;
17953;SDS011;9102;53.548;9.926;2022-09-09T10:56:51;4.93;;;2.40;;
17953;SDS011;9102;53.548;9.926;2022-09-09T10:59:22;3.17;;;1.08;;
17953;SDS011;9102;53.548;9.926;2022-09-09T11:01:53;5.70;;;1.50;;
17953;SDS011;9102;53.548;9.926;2022-09-09T11:04:25;3.17;;;1.27;;
17953;SDS011;9102;53.548;9.926;2022-09-09T11:07:00;9.40;;;2.42;;
17953;SDS011;9102;53.548;9.926;2022-09-09T11:09:35;7.00;;;1.40;;
17953;SDS011;9102;53.548;9.926;2022-09-09T11:12:09;7.85;;;1.67;;
17953;SDS011;9102;53.548;9.926;2022-09-09T11:14:43;3.70;;;1.08;;
17953;SDS011;9102;53.548;9.926;2022-09-09T11:17:16;2.55;;;1.00;;
17953;SDS011;9102;53.548;9.926;2022-09-09T11:19:46;5.75;;;1.40;;
17953;SDS011;9102;53.548;9.926;2022-09-09T11:22:17;4.32;;;1.50;;
17953;SDS011;9102;53.548;9.926;2022-09-09T11:24:54;6.38;;;1.40;;
17953;SDS011;9102;53.548;9.926;2022-09-09T11:27:27;4.20;;;1.10;;
17953;SDS011;9102;53.548;9.926;2022-09-09T11:30:05;6.20;;;1.08;;
17953;SDS011;9102;53.548;9.926;2022-09-09T11:35:47;4.93;;;0.98;;
17953;SDS011;9102;53.548;9.926;2022-09-09T11:38:26;5.47;;;1.20;;
17953;SDS011;9102;53.548;9.926;2022-09-09T11:40:56;4.80;;;0.90;;
17953;SDS011;9102;53.548;9.926;2022-09-09T11:43:27;2.70;;;0.80;;
17953;SDS011;9102;53.548;9.926;2022-09-09T11:45:58;3.97;;;0.98;;
17953;SDS011;9102;53.548;9.926;2022-09-09T11:48:34;4.38;;;1.10;;
17953;SDS011;9102;53.548;9.926;2022-09-09T11:51:04;2.95;;;1.00;;
17953;SDS011;9102;53.548;9.926;2022-09-09T11:53:34;5.55;;;1.15;;
17953;SDS011;9102;53.548;9.926;2022-09-09T11:56:05;5.40;;;1.00;;
17953;SDS011;9102;53.548;9.926;2022-09-09T11:58:38;7.20;;;2.00;;
17953;SDS011;9102;53.548;9.926;2022-09-09T12:01:26;2.83;;;1.30;;
17953;SDS011;9102;53.548;9.926;2022-09-09T12:04:10;5.22;;;1.52;;
17953;SDS011;9102;53.548;9.926;2022-09-09T12:06:42;6.10;;;1.48;;
17953;SDS011;9102;53.548;9.926;2022-09-09T12:09:15;5.95;;;1.70;;
17953;SDS011;9102;53.548;9.926;2022-09-09T12:12:05;4.82;;;1.88;;
17953;SDS011;9102;53.548;9.926;2022-09-09T12:14:35;6.43;;;1.40;;
17953;SDS011;9102;53.548;9.926;2022-09-09T12:17:16;7.38;;;1.80;;
17953;SDS011;9102;53.548;9.926;2022-09-09T12:19:45;2.97;;;1.50;;
17953;SDS011;9102;53.548;9.926;2022-09-09T12:22:15;4.65;;;1.45;;
17953;SDS011;9102;53.548;9.926;2022-09-09T12:24:53;3.83;;;1.20;;
17953;SDS011;9102;53.548;9.926;2022-09-09T12:27:26;6.43;;;1.70;;
17953;SDS011;9102;53.548;9.926;2022-09-09T12:29:58;6.70;;;1.60;;
17953;SDS011;9102;53.548;9.926;2022-09-09T12:32:30;5.05;;;1.60;;
17953;SDS011;9102;53.548;9.926;2022-09-09T12:34:58;4.75;;;1.48;;
17953;SDS011;9102;53.548;9.926;2022-09-09T12:37:29;6.93;;;1.73;;
17953;SDS011;9102;53.548;9.926;2022-09-09T12:40:03;6.65;;;2.20;;
17953;SDS011;9102;53.548;9.926;2022-09-09T12:42:32;4.28;;;1.50;;
17953;SDS011;9102;53.548;9.926;2022-09-09T12:44:59;5.20;;;2.35;;
17953;SDS011;9102;53.548;9.926;2022-09-09T12:47:34;6.50;;;1.80;;
17953;SDS011;9102;53.548;9.926;2022-09-09T12:50:10;3.58;;;1.40;;
17953;SDS011;9102;53.548;9.926;2022-09-09T12:52:42;5.00;;;1.70;;
17953;SDS011;9102;53.548;9.926;2022-09-09T12:55:16;7.82;;;1.75;;
17953;SDS011;9102;53.548;9.926;2022-09-09T12:57:45;6.55;;;2.88;;
17953;SDS011;9102;53.548;9.926;2022-09-09T13:00:14;9.43;;;3.45;;
17953;SDS011;9102;53.548;9.926;2022-09-09T13:02:46;5.38;;;1.88;;
17953;SDS011;9102;53.548;9.926;2022-09-09T13:05:16;3.47;;;1.90;;
17953;SDS011;9102;53.548;9.926;2022-09-09T13:07:45;7.30;;;2.13;;
17953;SDS011;9102;53.548;9.926;2022-09-09T13:10:13;4.68;;;2.15;;
17953;SDS011;9102;53.548;9.926;2022-09-09T13:12:47;5.55;;;2.30;;
17953;SDS011;9102;53.548;9.926;2022-09-09T13:15:16;4.60;;;2.40;;
17953;SDS011;9102;53.548;9.926;2022-09-09T13:17:51;7.40;;;2.33;;
17953;SDS011;9102;53.548;9.926;2022-09-09T13:20:20;14.30;;;2.42;;
17953;SDS011;9102;53.548;9.926;2022-09-09T13:22:48;9.93;;;2.50;;
17953;SDS011;9102;53.548;9.926;2022-09-09T13:25:19;5.55;;;2.08;;
17953;SDS011;9102;53.548;9.926;2022-09-09T13:27:54;8.20;;;1.88;;
17953;SDS011;9102;53.548;9.926;2022-09-09T13:30:25;7.68;;;1.98;;
17953;SDS011;9102;53.548;9.926;2022-09-09T13:33:05;9.18;;;2.67;;
17953;SDS011;9102;53.548;9.926;2022-09-09T13:35:45;7.95;;;2.47;;
17953;SDS011;9102;53.548;9.926;2022-09-09T13:38:14;7.10;;;2.85;;
17953;SDS011;9102;53.548;9.926;2022-09-09T13:40:52;7.95;;;2.80;;
17953;SDS011;9102;53.548;9.926;2022-09-09T13:46:44;8.40;;;3.78;;
17953;SDS011;9102;53.548;9.926;2022-09-09T13:49:19;16.05;;;4.65;;
17953;SDS011;9102;53.548;9.926;2022-09-09T13:51:48;9.90;;;4.00;;
17953;SDS011;9102;53.548;9.926;2022-09-09T13:54:17;8.50;;;4.38;;
17953;SDS011;9102;53.548;9.926;2022-09-09T13:56:47;10.40;;;4.80;;
17953;SDS011;9102;53.548;9.926;2022-09-09T13:59:15;8.38;;;4.68;;
17953;SDS011;9102;53.548;9.926;2022-09-09T14:01:44;9.65;;;5.22;;
17953;SDS011;9102;53.548;9.926;2022-09-09T14:04:12;14.35;;;6.68;;
17953;SDS011;9102;53.548;9.926;2022-09-09T14:06:39;11.93;;;6.30;;
17953;SDS011;9102;53.548;9.926;2022-09-09T14:09:06;11.60;;;6.10;;
17953;SDS011;9102;53.548;9.926;2022-09-09T14:11:35;11.75;;;6.00;;
17953;SDS011;9102;53.548;9.926;2022-09-09T14:14:04;11.40;;;6.50;;
17953;SDS011;9102;53.548;9.926;2022-09-09T14:16:30;9.73;;;6.88;;
17953;SDS011;9102;53.548;9.926;2022-09-09T14:18:57;11.68;;;8.18;;
17953;SDS011;9102;53.548;9.926;2022-09-09T14:21:24;17.45;;;9.13;;
17953;SDS011;9102;53.548;9.926;2022-09-09T14:23:52;16.08;;;8.40;;
17953;SDS011;9102;53.548;9.926;2022-09-09T14:26:19;12.57;;;8.63;;
17953;SDS011;9102;53.548;9.926;2022-09-09T14:28:46;17.35;;;7.05;;
17953;SDS011;9102;53.548;9.926;2022-09-09T14:31:15;12.85;;;7.55;;
17953;SDS011;9102;53.548;9.926;2022-09-09T14:33:42;10.88;;;7.53;;
17953;SDS011;9102;53.548;9.926;2022-09-09T14:36:10;10.32;;;6.13;;
17953;SDS011;9102;53.548;9.926;2022-09-09T14:38:37;13.23;;;6.78;;
17953;SDS011;9102;53.548;9.926;2022-09-09T14:41:05;12.05;;;5.85;;
17953;SDS011;9102;53.548;9.926;2022-09-09T14:43:32;7.15;;;5.13;;
17953;SDS011;9102;53.548;9.926;2022-09-09T14:46:04;8.52;;;4.57;;
17953;SDS011;9102;53.548;9.926;2022-09-09T14:48:33;7.88;;;4.50;;
17953;SDS011;9102;53.548;9.926;2022-09-09T14:51:04;10.77;;;4.70;;
17953;SDS011;9102;53.548;9.926;2022-09-09T14:53:32;8.43;;;4.60;;
17953;SDS011;9102;53.548;9.926;2022-09-09T14:56:03;9.77;;;4.30;;
17953;SDS011;9102;53.548;9.926;2022-09-09T14:58:31;8.38;;;4.63;;
17953;SDS011;9102;53.548;9.926;2022-09-09T15:01:01;7.75;;;4.10;;
17953;SDS011;9102;53.548;9.926;2022-09-09T15:03:30;6.70;;;4.93;;
17953;SDS011;9102;53.548;9.926;2022-09-09T15:05:58;8.40;;;4.68;;
17953;SDS011;9102;53.548;9.926;2022-09-09T15:08:30;8.43;;;4.70;;
17953;SDS011;9102;53.548;9.926;2022-09-09T15:10:58;10.75;;;4.43;;
17953;SDS011;9102;53.548;9.926;2022-09-09T15:13:26;11.00;;;4.95;;
17953;SDS011;9102;53.548;9.926;2022-09-09T15:15:53;13.63;;;5.30;;
17953;SDS011;9102;53.548;9.926;2022-09-09T15:18:20;6.22;;;3.78;;
17953;SDS011;9102;53.548;9.926;2022-09-09T15:20:47;6.85;;;3.35;;
17953;SDS011;9102;53.548;9.926;2022-09-09T15:23:15;9.43;;;3.33;;
17953;SDS011;9102;53.548;9.926;2022-09-09T15:25:49;6.28;;;3.50;;